Time;durP1;ratioP1;P1;durP2;ratioP2;P2;SDS_P1;SDS_P2;PMS_P1;PMS_P2;Temp;Humidity;BMP_temperature;BMP_pressure;BME280_temperature;BME280_humidity;BME280_pressure;Samples;Min_cycle;Max_cycle;Signal;HPM_P1;HPM_P2
2022/08/18 00:02:18;;;;;;;19.15;12.32;;;23.90;99.90;;;;;;6211226;23;20381;-74
2022/08/18 00:04:45;;;;;;;15.90;12.02;;;23.90;99.90;;;;;;6211819;23;20078;-74
2022/08/18 00:07:15;;;;;;;17.92;12.52;;;23.90;99.90;;;;;;6212473;23;20000;-74
2022/08/18 00:09:42;;;;;;;23.88;12.43;;;23.80;99.90;;;;;;6211568;23;20161;-74
2022/08/18 00:12:15;;;;;;;17.63;12.18;;;23.80;99.90;;;;;;6211504;23;20004;-74
2022/08/18 00:14:41;;;;;;;18.58;12.80;;;23.90;99.90;;;;;;6212956;23;20004;-74
2022/08/18 00:17:06;;;;;;;18.35;12.38;;;24.00;99.90;;;;;;6212755;23;20032;-74
2022/08/18 00:19:32;;;;;;;22.40;13.35;;;24.10;99.90;;;;;;6213177;23;20239;-74
2022/08/18 00:21:58;;;;;;;28.35;14.18;;;24.10;99.90;;;;;;6212749;23;20051;-74
2022/08/18 00:24:25;;;;;;;20.50;13.75;;;24.20;99.90;;;;;;6212791;23;20446;-74
2022/08/18 00:26:51;;;;;;;24.17;13.50;;;24.10;99.90;;;;;;6213094;23;20059;-74
2022/08/18 00:29:17;;;;;;;17.70;13.02;;;24.20;99.90;;;;;;6213299;23;20011;-74
2022/08/18 00:31:43;;;;;;;18.38;13.70;;;24.20;99.90;;;;;;6212836;23;20012;-74
2022/08/18 00:34:09;;;;;;;17.17;12.80;;;24.10;99.90;;;;;;6212336;23;20001;-74
2022/08/18 00:36:35;;;;;;;16.20;12.75;;;24.00;99.90;;;;;;6211595;23;20012;-74
2022/08/18 00:39:01;;;;;;;18.33;12.63;;;24.00;99.90;;;;;;6212412;23;20381;-75
2022/08/18 00:41:27;;;;;;;21.35;12.80;;;23.90;99.90;;;;;;6206968;23;20068;-74
2022/08/18 00:43:57;;;;;;;22.98;13.52;;;23.80;99.90;;;;;;6211106;23;20000;-74
2022/08/18 00:46:29;;;;;;;15.23;12.15;;;23.80;99.90;;;;;;6211902;23;20015;-74
2022/08/18 00:48:55;;;;;;;;;;;23.80;99.90;;;;;;6213174;23;19996;-74
2022/08/18 00:51:30;;;;;;;21.55;12.93;;;23.80;99.90;;;;;;6212711;23;20182;-74
2022/08/18 00:54:01;;;;;;;17.05;12.60;;;23.70;99.90;;;;;;6212324;23;20011;-74
2022/08/18 00:56:32;;;;;;;14.80;12.27;;;23.70;99.90;;;;;;6213014;23;20040;-74
2022/08/18 00:59:10;;;;;;;20.88;12.98;;;23.60;99.90;;;;;;6212500;23;20582;-74
2022/08/18 01:01:36;;;;;;;17.88;12.50;;;23.50;99.90;;;;;;6212806;23;20027;-74
2022/08/18 01:04:11;;;;;;;21.73;12.88;;;23.50;99.90;;;;;;6210952;23;20009;-74
2022/08/18 01:06:50;;;;;;;20.55;12.90;;;23.50;99.90;;;;;;6211310;23;20027;-74
2022/08/18 01:09:16;;;;;;;21.95;13.95;;;23.40;99.90;;;;;;6212649;23;20011;-74
2022/08/18 01:11:43;;;;;;;15.05;12.48;;;23.40;99.90;;;;;;6210833;23;20004;-74
2022/08/18 01:14:10;;;;;;;20.77;13.25;;;23.40;99.90;;;;;;6212665;23;19989;-74
2022/08/18 01:22:23;;;;;;;15.85;11.75;;;23.30;99.90;;;;;;6212378;23;20399;-74
2022/08/18 01:27:36;;;;;;;14.80;11.30;;;23.30;99.90;;;;;;6212423;23;20012;-74
2022/08/18 01:30:08;;;;;;;16.10;10.38;;;23.40;99.90;;;;;;6212449;23;20105;-74
2022/08/18 01:32:35;;;;;;;17.98;10.50;;;23.30;99.90;;;;;;6212229;23;20008;-74
2022/08/18 01:35:01;;;;;;;16.77;10.15;;;23.40;99.90;;;;;;6212668;23;20032;-74
2022/08/18 01:37:28;;;;;;;19.27;10.80;;;23.40;99.90;;;;;;6211808;23;20230;-74
2022/08/18 01:39:54;;;;;;;13.02;9.38;;;23.40;99.90;;;;;;6212760;23;20004;-74
2022/08/18 01:42:20;;;;;;;14.10;10.27;;;23.40;99.90;;;;;;6212848;23;20054;-74
2022/08/18 01:44:50;;;;;;;15.38;10.07;;;23.40;99.90;;;;;;6214740;23;20420;-74
2022/08/18 01:47:17;;;;;;;16.08;9.85;;;23.40;99.90;;;;;;6214346;23;20004;-74
2022/08/18 01:49:43;;;;;;;13.80;9.75;;;23.40;99.90;;;;;;6214178;23;20447;-74
2022/08/18 01:52:19;;;;;;;15.07;9.52;;;23.40;99.90;;;;;;6214144;23;20108;-74
2022/08/18 01:54:45;;;;;;;14.60;9.18;;;23.40;99.90;;;;;;6214541;23;20005;-73
2022/08/18 01:57:13;;;;;;;13.20;9.02;;;23.40;99.90;;;;;;6213986;23;20009;-74
2022/08/18 01:59:40;;;;;;;14.48;9.25;;;23.40;99.90;;;;;;6214571;23;20003;-73
2022/08/18 02:02:08;;;;;;;14.95;9.88;;;23.40;99.90;;;;;;6214145;23;20005;-74
2022/08/18 02:04:35;;;;;;;14.68;9.05;;;23.40;99.90;;;;;;6214313;23;20169;-74
2022/08/18 02:07:02;;;;;;;13.88;9.00;;;23.30;99.90;;;;;;6213642;23;20060;-74
2022/08/18 02:09:28;;;;;;;14.35;8.98;;;23.30;99.90;;;;;;6214320;23;20001;-74
2022/08/18 02:11:55;;;;;;;15.95;9.32;;;23.30;99.90;;;;;;6213557;23;20000;-74
2022/08/18 02:14:21;;;;;;;13.25;8.98;;;23.30;99.90;;;;;;6214388;23;20494;-74
2022/08/18 02:16:47;;;;;;;16.85;8.98;;;23.30;99.90;;;;;;6212491;23;20099;-74
2022/08/18 02:19:13;;;;;;;10.48;8.35;;;23.30;99.90;;;;;;6214143;23;20024;-74
2022/08/18 02:21:39;;;;;;;15.80;9.13;;;23.30;99.90;;;;;;6214075;23;20001;-74
2022/08/18 02:24:04;;;;;;;11.18;8.18;;;23.30;99.90;;;;;;6212115;23;20131;-74
2022/08/18 02:26:30;;;;;;;11.02;8.35;;;23.30;99.90;;;;;;6212626;23;20475;-74
2022/08/18 02:28:56;;;;;;;11.02;7.75;;;23.30;99.90;;;;;;6213639;23;20050;-74
2022/08/18 02:31:24;;;;;;;10.65;8.23;;;23.30;99.90;;;;;;6214054;23;20004;-74
2022/08/18 02:33:50;;;;;;;17.00;8.10;;;23.30;99.90;;;;;;6213679;23;20423;-74
2022/08/18 02:36:16;;;;;;;14.27;8.80;;;23.40;99.90;;;;;;6212552;23;20016;-73
2022/08/18 02:38:43;;;;;;;14.48;8.40;;;23.30;99.90;;;;;;6213481;23;20383;-74
2022/08/18 02:41:11;;;;;;;13.65;7.72;;;23.30;99.90;;;;;;6212198;23;20337;-74
2022/08/18 02:43:37;;;;;;;12.23;7.55;;;23.30;99.90;;;;;;6213772;23;19996;-74
2022/08/18 02:46:04;;;;;;;11.02;8.32;;;23.30;99.90;;;;;;6213894;23;20432;-74
2022/08/18 02:48:34;;;;;;;10.55;7.57;;;23.30;99.90;;;;;;6213486;23;20044;-74
2022/08/18 02:51:11;;;;;;;12.35;7.55;;;23.30;99.90;;;;;;6214139;23;20484;-74
2022/08/18 02:53:39;;;;;;;11.63;7.70;;;23.30;99.90;;;;;;6213530;23;20007;-74
2022/08/18 02:56:23;;;;;;;12.38;7.60;;;23.30;99.90;;;;;;6214104;23;20012;-74
2022/08/18 02:58:56;;;;;;;10.88;7.38;;;23.30;99.90;;;;;;6213570;23;20001;-74
2022/08/18 03:01:28;;;;;;;13.45;8.13;;;23.30;99.90;;;;;;6213566;23;20080;-74
2022/08/18 03:03:55;;;;;;;9.75;6.72;;;23.20;99.90;;;;;;6213155;23;20432;-74
2022/08/18 03:06:22;;;;;;;15.48;6.97;;;23.20;99.90;;;;;;6212427;23;20013;-74
2022/08/18 03:08:49;;;;;;;11.15;7.38;;;23.20;99.90;;;;;;6213094;23;20000;-73
2022/08/18 03:11:20;;;;;;;15.02;7.13;;;23.20;99.90;;;;;;6214205;23;20000;-74
2022/08/18 03:13:46;;;;;;;13.30;7.38;;;23.20;99.90;;;;;;6211775;23;20092;-73
2022/08/18 03:16:14;;;;;;;13.45;7.82;;;23.10;99.90;;;;;;6213774;23;20087;-74
2022/08/18 03:18:41;;;;;;;11.90;7.28;;;23.10;99.90;;;;;;6182878;23;20009;-74
2022/08/18 03:21:17;;;;;;;12.18;6.97;;;23.10;99.90;;;;;;6183648;23;20441;-74
2022/08/18 03:23:43;;;;;;;12.15;6.80;;;23.10;99.90;;;;;;6157231;23;20016;-74
2022/08/18 03:26:10;;;;;;;11.02;7.15;;;23.10;99.90;;;;;;6157363;23;20432;-74
2022/08/18 03:28:37;;;;;;;16.17;7.10;;;23.10;99.90;;;;;;6156747;23;20009;-74
2022/08/18 03:31:03;;;;;;;12.95;6.65;;;23.10;99.90;;;;;;6157475;23;20028;-74
2022/08/18 03:33:29;;;;;;;13.15;6.90;;;23.10;99.90;;;;;;6156842;23;20085;-74
2022/08/18 03:35:55;;;;;;;9.55;6.70;;;23.10;99.90;;;;;;6183555;23;20041;-74
2022/08/18 03:38:21;;;;;;;9.73;6.43;;;23.10;99.90;;;;;;6156115;23;20009;-74
2022/08/18 03:40:51;;;;;;;15.15;6.60;;;23.10;99.90;;;;;;6156832;23;20494;-74
2022/08/18 03:43:17;;;;;;;11.73;6.93;;;23.10;99.90;;;;;;6183091;23;20005;-75
2022/08/18 03:45:42;;;;;;;11.60;6.50;;;23.10;99.90;;;;;;6157080;23;20017;-74
2022/08/18 03:48:09;;;;;;;11.98;6.57;;;23.20;99.90;;;;;;6182997;23;20310;-74
2022/08/18 03:50:35;;;;;;;11.50;6.72;;;23.20;99.90;;;;;;6183550;23;20001;-74
2022/08/18 03:53:03;;;;;;;12.07;6.90;;;23.20;99.90;;;;;;6182786;23;20425;-74
2022/08/18 03:55:30;;;;;;;10.75;6.93;;;23.20;99.90;;;;;;6182925;23;20020;-74
2022/08/18 03:58:01;;;;;;;19.25;7.15;;;23.30;99.90;;;;;;6182259;23;19997;-74
2022/08/18 04:00:29;;;;;;;14.73;7.10;;;23.30;99.90;;;;;;6183266;23;20340;-74
2022/08/18 04:02:55;;;;;;;13.45;7.05;;;23.30;99.90;;;;;;6156423;23;20043;-75
2022/08/18 04:05:21;;;;;;;13.13;6.80;;;23.30;99.90;;;;;;6183061;23;20447;-74
2022/08/18 04:07:47;;;;;;;11.77;7.13;;;23.30;99.90;;;;;;6182488;23;20004;-74
2022/08/18 04:10:13;;;;;;;12.63;6.47;;;23.30;99.90;;;;;;6183237;23;20071;-75
2022/08/18 04:12:40;;;;;;;11.20;7.25;;;23.30;99.90;;;;;;6182818;23;20015;-74
2022/08/18 04:15:08;;;;;;;13.65;6.97;;;23.30;99.90;;;;;;6155966;23;20001;-74
2022/08/18 04:17:34;;;;;;;9.55;6.75;;;23.30;99.90;;;;;;6199091;23;20498;-74
2022/08/18 04:20:00;;;;;;;12.57;7.32;;;23.30;99.90;;;;;;6213310;23;20001;-74
2022/08/18 04:22:25;;;;;;;13.15;6.60;;;23.30;99.90;;;;;;6212902;23;20005;-74
2022/08/18 04:24:52;;;;;;;12.43;6.78;;;23.40;99.90;;;;;;6213012;23;20004;-74
2022/08/18 04:27:19;;;;;;;16.27;6.20;;;23.40;99.90;;;;;;6212785;23;20084;-74
2022/08/18 04:29:46;;;;;;;7.22;5.80;;;23.40;99.90;;;;;;6213498;23;20039;-74
2022/08/18 04:32:11;;;;;;;13.57;6.82;;;23.40;99.90;;;;;;6212251;23;20020;-74
2022/08/18 04:34:37;;;;;;;12.07;6.57;;;23.40;99.90;;;;;;6212824;23;20015;-73
2022/08/18 04:37:03;;;;;;;9.13;6.07;;;23.50;99.90;;;;;;6212424;23;20380;-74
2022/08/18 04:39:29;;;;;;;10.63;6.93;;;23.50;99.90;;;;;;6212825;23;20001;-74
2022/08/18 04:41:55;;;;;;;9.07;6.07;;;23.60;99.90;;;;;;6212686;23;20444;-75
2022/08/18 04:44:21;;;;;;;13.82;6.72;;;23.60;99.90;;;;;;6211374;23;20007;-75
2022/08/18 04:46:52;;;;;;;12.70;7.05;;;23.70;99.90;;;;;;6212979;23;20025;-75
2022/08/18 04:49:20;;;;;;;8.68;5.60;;;23.70;99.90;;;;;;6212469;23;20039;-75
2022/08/18 04:54:37;;;;;;;13.38;6.07;;;23.70;99.90;;;;;;6212586;23;20031;-74
2022/08/18 04:57:14;;;;;;;11.32;6.35;;;23.80;99.90;;;;;;6212666;23;20459;-75
2022/08/18 04:59:44;;;;;;;15.32;6.28;;;23.80;99.90;;;;;;6213156;23;20007;-75
2022/08/18 05:02:11;;;;;;;13.45;6.22;;;23.90;99.90;;;;;;6212599;23;20012;-75
2022/08/18 05:04:39;;;;;;;14.93;5.72;;;23.90;99.90;;;;;;6211227;23;20084;-75
2022/08/18 05:07:06;;;;;;;14.30;5.63;;;24.00;99.90;;;;;;6211824;23;20001;-76
2022/08/18 05:09:32;;;;;;;12.73;6.38;;;24.00;99.90;;;;;;6212594;23;20007;-75
2022/08/18 05:11:58;;;;;;;11.93;5.80;;;24.00;99.90;;;;;;6211757;23;20004;-75
2022/08/18 05:14:24;;;;;;;8.27;5.43;;;24.10;99.90;;;;;;6211145;23;20062;-75
2022/08/18 05:16:50;;;;;;;8.77;6.10;;;24.10;99.90;;;;;;6212076;23;20016;-75
2022/08/18 05:19:21;;;;;;;13.20;5.82;;;24.20;99.90;;;;;;6212790;23;20001;-75
2022/08/18 05:21:47;;;;;;;11.05;6.15;;;24.20;99.90;;;;;;6212774;23;20000;-75
2022/08/18 05:24:13;;;;;;;10.32;6.18;;;24.30;99.90;;;;;;6212344;23;20001;-74
2022/08/18 05:26:40;;;;;;;10.55;5.97;;;24.30;99.90;;;;;;6212150;23;20079;-74
2022/08/18 05:29:06;;;;;;;8.52;5.88;;;24.40;99.90;;;;;;6212523;23;20011;-74
2022/08/18 05:31:32;;;;;;;12.07;5.95;;;24.40;99.90;;;;;;6212335;23;20431;-74
2022/08/18 05:34:01;;;;;;;10.48;5.43;;;24.50;99.90;;;;;;6210731;23;20051;-75
2022/08/18 05:36:39;;;;;;;13.38;5.40;;;24.50;99.90;;;;;;6212695;23;20019;-75
2022/08/18 05:39:43;;;;;;;10.75;5.80;;;24.60;99.90;;;;;;6212286;23;20095;-75
2022/08/18 05:42:17;;;;;;;10.05;5.70;;;24.70;99.90;;;;;;6190637;23;20004;-74
2022/08/18 05:44:46;;;;;;;12.35;5.47;;;24.80;99.90;;;;;;6212495;23;20027;-75
2022/08/18 05:47:18;;;;;;;10.57;5.78;;;24.90;99.90;;;;;;6210766;23;20054;-75
2022/08/18 05:49:47;;;;;;;11.17;5.70;;;24.90;99.90;;;;;;6207750;23;20012;-74
2022/08/18 05:52:47;;;;;;;42.85;6.22;;;25.00;99.90;;;;;;6206628;23;20004;-75
2022/08/18 05:58:30;;;;;;;17.27;5.32;;;25.10;99.90;;;;;;6207777;23;20259;-74
2022/08/18 06:01:04;;;;;;;11.57;5.57;;;25.20;99.90;;;;;;6206522;23;20385;-75
2022/08/18 06:03:48;;;;;;;15.93;5.60;;;25.30;99.90;;;;;;6206897;23;20009;-75
2022/08/18 06:06:19;;;;;;;10.43;4.72;;;25.40;99.90;;;;;;6208439;23;20001;-76
2022/08/18 06:09:01;;;;;;;13.73;5.43;;;25.40;99.90;;;;;;6207494;23;20336;-77
2022/08/18 06:11:27;;;;;;;9.73;5.28;;;25.50;99.90;;;;;;6207931;23;20540;-75
2022/08/18 06:13:53;;;;;;;8.45;5.50;;;25.50;99.90;;;;;;6208111;23;20013;-75
2022/08/18 06:16:33;;;;;;;8.90;5.40;;;25.60;99.90;;;;;;6207540;23;20444;-75
2022/08/18 06:19:42;;;;;;;13.25;5.78;;;25.70;99.90;;;;;;6207948;23;20017;-75
2022/08/18 06:22:35;;;;;;;10.68;5.13;;;25.80;99.90;;;;;;6207540;23;20067;-75
2022/08/18 06:25:36;;;;;;;13.00;5.30;;;25.80;99.90;;;;;;6206500;23;20472;-75
2022/08/18 06:28:07;;;;;;;9.77;5.20;;;26.00;99.90;;;;;;6207031;23;20012;-75
2022/08/18 06:30:41;;;;;;;10.40;4.97;;;26.10;99.90;;;;;;6209584;23;20020;-78
2022/08/18 06:33:41;;;;;;;7.10;5.18;;;26.20;99.90;;;;;;6209607;23;20343;-77
2022/08/18 06:36:24;;;;;;;9.75;5.13;;;26.30;99.90;;;;;;6209840;23;20039;-77
2022/08/18 06:39:03;;;;;;;8.45;5.38;;;26.40;99.90;;;;;;6209373;23;20055;-84
2022/08/18 06:41:40;;;;;;;12.77;5.25;;;26.60;99.90;;;;;;6209232;23;20012;-77
2022/08/18 06:44:12;;;;;;;9.57;4.57;;;26.80;99.90;;;;;;6207627;23;20008;-78
2022/08/18 06:46:41;;;;;;;8.07;4.50;;;27.00;99.90;;;;;;6208086;23;20009;-77
2022/08/18 06:49:35;;;;;;;13.27;4.85;;;27.20;99.90;;;;;;6212472;23;20001;-77
2022/08/18 06:52:22;;;;;;;9.40;4.80;;;27.50;99.90;;;;;;6197902;23;20009;-77
2022/08/18 06:54:48;;;;;;;7.72;4.43;;;27.90;99.90;;;;;;6213507;23;20067;-77
2022/08/18 06:57:27;;;;;;;13.85;4.93;;;28.10;99.90;;;;;;6213522;23;20013;-77
2022/08/18 06:59:56;;;;;;;7.32;4.43;;;28.30;99.90;;;;;;6214342;23;20024;-78
2022/08/18 07:02:31;;;;;;;12.05;4.38;;;28.50;99.90;;;;;;6213519;23;20004;-77
2022/08/18 07:05:18;;;;;;;14.15;4.50;;;28.60;99.90;;;;;;6213938;23;20084;-77
2022/08/18 07:07:43;;;;;;;9.25;4.28;;;28.60;99.90;;;;;;6213438;23;20008;-77
2022/08/18 07:10:15;;;;;;;10.13;4.35;;;28.60;99.90;;;;;;6214006;23;19997;-78
2022/08/18 07:12:41;;;;;;;8.95;4.30;;;28.60;99.90;;;;;;6213345;23;20004;-78
2022/08/18 07:15:11;;;;;;;10.77;3.90;;;28.60;99.90;;;;;;6213109;23;20007;-77
2022/08/18 07:17:37;;;;;;;12.02;4.00;;;28.60;99.90;;;;;;6212611;23;20399;-77
2022/08/18 07:20:21;;;;;;;7.47;4.05;;;28.60;99.90;;;;;;6213714;23;20328;-78
2022/08/18 07:23:03;;;;;;;9.93;3.72;;;28.70;99.90;;;;;;6213353;23;20001;-78
2022/08/18 07:25:39;;;;;;;8.52;3.88;;;28.70;99.90;;;;;;6214029;23;20043;-78
2022/08/18 07:28:06;;;;;;;26.70;6.32;;;28.70;99.90;;;;;;6211638;23;20383;-78
2022/08/18 07:30:35;;;;;;;11.63;4.15;;;28.70;99.90;;;;;;6213725;23;20196;-78
2022/08/18 07:33:14;;;;;;;10.52;5.38;;;28.60;99.90;;;;;;6211386;23;20216;-78
2022/08/18 07:36:05;;;;;;;15.20;5.63;;;28.50;99.90;;;;;;6213224;23;20051;-79
2022/08/18 07:38:34;;;;;;;19.10;5.95;;;28.40;99.90;;;;;;6213061;23;20000;-78
2022/08/18 07:41:19;;;;;;;13.77;5.55;;;28.40;99.90;;;;;;6213757;23;19996;-78
2022/08/18 07:43:50;;;;;;;16.88;6.30;;;28.30;99.90;;;;;;6213086;23;20375;-78
2022/08/18 07:46:46;;;;;;;16.45;5.90;;;28.20;99.90;;;;;;6213519;23;20000;-78
2022/08/18 07:49:20;;;;;;;9.13;5.55;;;28.30;99.90;;;;;;6211477;23;20008;-78
2022/08/18 07:52:01;;;;;;;14.77;5.95;;;28.40;99.90;;;;;;6208902;23;20007;-78
2022/08/18 07:54:56;;;;;;;13.40;6.15;;;28.60;99.90;;;;;;6208730;23;20082;-78
2022/08/18 07:58:07;;;;;;;11.75;5.75;;;28.90;99.90;;;;;;6208637;23;20086;-78
2022/08/18 08:00:46;;;;;;;11.27;3.65;;;29.20;99.90;;;;;;6208933;23;20066;-78
2022/08/18 08:03:30;;;;;;;11.52;3.50;;;29.40;99.90;;;;;;6206767;23;20012;-78
2022/08/18 08:06:23;;;;;;;16.80;3.65;;;29.60;99.90;;;;;;6207487;23;20011;-78
2022/08/18 08:08:57;;;;;;;;;;;29.80;99.90;;;;;;6207347;23;20017;-77
2022/08/18 08:11:46;;;;;;;9.90;4.28;;;30.00;99.90;;;;;;6208524;23;19903;-78
2022/08/18 08:14:45;;;;;;;8.70;3.50;;;30.10;99.90;;;;;;6208588;23;20008;-78
2022/08/18 08:17:22;;;;;;;13.15;5.07;;;30.10;99.90;;;;;;6198294;23;20066;-78
2022/08/18 08:19:51;;;;;;;13.27;5.80;;;30.20;99.90;;;;;;6209257;23;20005;-78
2022/08/18 08:22:28;;;;;;;16.17;6.10;;;30.10;99.90;;;;;;6206789;23;20031;-78
2022/08/18 08:25:06;;;;;;;16.17;6.35;;;30.00;99.90;;;;;;6208843;23;20233;-79
2022/08/18 08:27:56;;;;;;;13.10;5.05;;;29.80;99.90;;;;;;6206639;23;20372;-78
2022/08/18 08:30:24;;;;;;;12.93;4.07;;;29.60;99.90;;;;;;6207716;23;20011;-78
2022/08/18 08:33:19;;;;;;;12.35;4.38;;;29.50;99.90;;;;;;6208474;23;20005;-78
2022/08/18 08:35:53;;;;;;;9.45;3.70;;;29.60;99.90;;;;;;6208872;23;20428;-78
2022/08/18 08:38:37;;;;;;;14.02;5.05;;;29.70;99.90;;;;;;6208192;23;20062;-79
2022/08/18 08:41:10;;;;;;;10.77;4.10;;;29.70;99.90;;;;;;6208565;23;20004;-78
2022/08/18 08:44:04;;;;;;;12.65;4.90;;;29.90;99.90;;;;;;6208054;23;20005;-78
2022/08/18 08:46:55;;;;;;;8.80;3.78;;;30.10;99.90;;;;;;6208120;23;20013;-79
2022/08/18 08:49:54;;;;;;;7.88;3.72;;;30.30;99.90;;;;;;6207967;23;20016;-79
2022/08/18 08:52:25;;;;;;;11.10;3.80;;;30.50;99.90;;;;;;6206765;23;20057;-79
2022/08/18 08:55:10;;;;;;;10.40;3.70;;;30.70;99.90;;;;;;6208062;23;20031;-78
2022/08/18 08:57:41;;;;;;;14.43;3.92;;;31.00;99.90;;;;;;6206756;23;20487;-79
2022/08/18 09:00:10;;;;;;;10.18;3.75;;;31.30;99.90;;;;;;6209019;23;20035;-79
2022/08/18 09:03:00;;;;;;;6.18;3.22;;;31.50;99.90;;;;;;6208659;23;20346;-79
2022/08/18 09:05:40;;;;;;;7.65;3.30;;;31.80;99.90;;;;;;6208018;23;20344;-78
2022/08/18 09:08:08;;;;;;;7.70;3.55;;;31.90;99.90;;;;;;6207906;23;20568;-78
2022/08/18 09:10:43;;;;;;;15.60;4.15;;;31.90;99.90;;;;;;6208258;23;20007;-79
2022/08/18 09:13:50;;;;;;;11.07;3.67;;;31.90;99.90;;;;;;6208486;23;20147;-79
2022/08/18 09:16:22;;;;;;;17.38;6.45;;;31.80;99.90;;;;;;6208196;23;20026;-79
2022/08/18 09:18:59;;;;;;;16.05;5.80;;;31.40;99.90;;;;;;6208239;23;20012;-78
2022/08/18 09:21:37;;;;;;;23.10;5.50;;;31.10;99.90;;;;;;6207894;23;20475;-79
2022/08/18 09:24:15;;;;;;;28.15;6.25;;;30.40;99.90;;;;;;6206377;23;20012;-78
2022/08/18 09:26:47;;;;;;;14.57;6.15;;;29.80;99.90;;;;;;6206420;23;20020;-78
2022/08/18 09:29:22;;;;;;;13.88;5.30;;;29.40;99.90;;;;;;6208440;23;20028;-79
2022/08/18 09:32:08;;;;;;;13.70;5.80;;;29.10;99.90;;;;;;6206786;23;20090;-78
2022/08/18 09:34:55;;;;;;;9.70;5.53;;;28.90;99.90;;;;;;6206402;23;20005;-77
2022/08/18 09:43:53;;;;;;;15.18;6.60;;;28.50;99.90;;;;;;6211618;23;20040;-77
2022/08/18 09:46:41;;;;;;;20.42;6.82;;;28.30;99.90;;;;;;6210766;23;20013;-78
2022/08/18 09:49:23;;;;;;;29.58;7.45;;;28.10;99.90;;;;;;6193812;23;20009;-77
2022/08/18 09:51:51;;;;;;;24.05;7.00;;;28.20;99.90;;;;;;6212551;23;20483;-77
2022/08/18 09:54:23;;;;;;;17.80;5.68;;;28.40;99.90;;;;;;6211060;23;20432;-77
2022/08/18 09:56:48;;;;;;;11.83;5.83;;;28.60;99.90;;;;;;6212299;23;20087;-77
2022/08/18 09:59:35;;;;;;;13.13;5.57;;;28.80;99.90;;;;;;6212676;23;20256;-77
2022/08/18 10:02:07;;;;;;;9.50;5.68;;;29.00;99.90;;;;;;6151046;23;20004;-77
2022/08/18 10:04:34;;;;;;;15.23;5.70;;;29.20;99.90;;;;;;6211536;23;20371;-77
2022/08/18 10:07:18;;;;;;;13.23;5.20;;;29.20;99.90;;;;;;6214237;23;20067;-77
2022/08/18 10:10:21;;;;;;;14.32;5.00;;;29.30;99.90;;;;;;6212651;23;20092;-78
2022/08/18 10:12:58;;;;;;;10.20;5.20;;;29.50;99.90;;;;;;6213870;23;20067;-78
2022/08/18 10:15:42;;;;;;;12.50;4.90;;;29.70;99.90;;;;;;6212731;23;20058;-77
2022/08/18 10:18:42;;;;;;;11.98;4.57;;;29.90;99.90;;;;;;6213267;23;20095;-78
2022/08/18 10:21:21;;;;;;;15.63;4.53;;;30.00;99.90;;;;;;6214615;23;20371;-77
2022/08/18 10:23:49;;;;;;;16.85;4.32;;;30.30;99.90;;;;;;6214015;23;20087;-77
2022/08/18 10:26:30;;;;;;;13.68;4.75;;;30.40;99.90;;;;;;6214452;23;20008;-78
2022/08/18 10:28:56;;;;;;;24.92;4.82;;;30.80;99.90;;;;;;6212069;23;20008;-78
2022/08/18 10:31:22;;;;;;;6.63;3.75;;;31.00;99.90;;;;;;6214612;23;20004;-77
2022/08/18 10:34:01;;;;;;;10.48;4.32;;;31.20;99.90;;;;;;6211812;23;20005;-78
2022/08/18 10:36:48;;;;;;;12.00;4.38;;;31.30;99.90;;;;;;6213779;23;20340;-77
2022/08/18 10:39:41;;;;;;;12.23;4.65;;;31.30;99.90;;;;;;6214077;23;19997;-79
2022/08/18 10:42:19;;;;;;;9.05;3.97;;;31.40;99.90;;;;;;6208920;23;20004;-77
2022/08/18 10:44:46;;;;;;;9.98;4.00;;;31.60;99.90;;;;;;6212494;23;20395;-77
2022/08/18 10:47:25;;;;;;;18.33;4.57;;;31.70;99.90;;;;;;6212119;23;20379;-77
2022/08/18 10:49:52;;;;;;;11.50;5.40;;;31.70;99.90;;;;;;6214285;23;19997;-77
2022/08/18 10:52:20;;;;;;;14.60;5.65;;;31.50;99.90;;;;;;6211403;23;20016;-77
2022/08/18 10:55:08;;;;;;;8.50;4.15;;;31.20;99.90;;;;;;6213939;23;20046;-77
2022/08/18 10:57:53;;;;;;;11.05;4.28;;;30.80;99.90;;;;;;6213291;23;20501;-77
2022/08/18 11:00:21;;;;;;;10.68;4.63;;;30.50;99.90;;;;;;6214157;23;19997;-77
2022/08/18 11:02:56;;;;;;;20.23;4.93;;;30.40;99.90;;;;;;6213863;23;20000;-77
2022/08/18 11:05:26;;;;;;;8.52;4.57;;;30.20;99.90;;;;;;6217109;23;20004;-77
2022/08/18 11:08:02;;;;;;;12.95;4.43;;;29.90;99.90;;;;;;6211772;23;20000;-81
2022/08/18 11:10:43;;;;;;;11.45;4.70;;;29.60;99.90;;;;;;6211524;23;20443;-79
2022/08/18 11:13:23;;;;;;;10.10;4.65;;;29.20;99.90;;;;;;6213469;23;20020;-79
2022/08/18 11:16:15;;;;;;;21.92;4.80;;;29.00;99.90;;;;;;6213524;23;20005;-79
2022/08/18 11:18:49;;;;;;;9.63;5.05;;;28.70;99.90;;;;;;6213455;23;20436;-79
2022/08/18 11:21:34;;;;;;;14.00;5.60;;;28.60;99.90;;;;;;6213964;23;20075;-79
2022/08/18 11:24:09;;;;;;;10.25;4.55;;;28.60;99.90;;;;;;6213164;23;20424;-79
2022/08/18 11:26:42;;;;;;;15.13;4.88;;;28.50;99.90;;;;;;6213582;23;20008;-81
2022/08/18 11:29:33;;;;;;;10.18;4.85;;;28.50;99.90;;;;;;6213324;23;20332;-78
2022/08/18 11:32:11;;;;;;;14.38;4.75;;;28.50;99.90;;;;;;6213203;23;20467;-78
2022/08/18 11:34:47;;;;;;;9.55;4.35;;;28.50;99.90;;;;;;6213760;23;20458;-77
2022/08/18 11:37:25;;;;;;;11.98;4.20;;;28.40;99.90;;;;;;6209021;23;20039;-80
2022/08/18 11:39:56;;;;;;;11.43;5.13;;;28.40;99.90;;;;;;6209852;23;20010;-79
2022/08/18 11:42:36;;;;;;;14.50;4.72;;;28.20;99.90;;;;;;6211908;23;20313;-81
2022/08/18 11:45:19;;;;;;;13.85;4.90;;;28.20;99.90;;;;;;6212126;23;20009;-79
2022/08/18 11:48:03;;;;;;;;;;;28.10;99.90;;;;;;6213927;23;20080;-78
2022/08/18 11:50:31;;;;;;;15.07;5.10;;;27.80;99.90;;;;;;6213678;23;19923;-79
2022/08/18 11:53:29;;;;;;;16.42;6.82;;;27.40;99.90;;;;;;6211638;23;20462;-80
2022/08/18 11:56:13;;;;;;;17.70;8.40;;;25.60;99.90;;;;;;6213373;23;20012;-82
2022/08/18 11:59:09;;;;;;;27.90;8.48;;;24.20;99.90;;;;;;6211554;23;20001;-81
2022/08/18 12:01:49;;;;;;;119.72;17.52;;;23.80;99.90;;;;;;6186655;23;20008;-88
2022/08/18 12:04:37;;;;;;;196.18;29.65;;;22.00;99.90;;;;;;6214461;23;20340;-83
2022/08/18 12:07:08;;;;;;;198.30;26.40;;;21.30;99.90;;;;;;6213984;23;20082;-86
2022/08/18 12:09:45;;;;;;;192.70;22.17;;;20.90;99.90;;;;;;6214360;23;20390;-82
2022/08/18 12:12:24;;;;;;;194.23;19.85;;;20.70;99.90;;;;;;6213558;23;20014;-80
2022/08/18 12:15:25;;;;;;;167.82;20.38;;;20.50;99.90;;;;;;6213751;23;20030;-85
2022/08/18 12:17:51;;;;;;;182.23;20.50;;;20.60;99.90;;;;;;6211864;23;20031;-83
2022/08/18 12:20:17;;;;;;;205.90;22.30;;;20.70;99.90;;;;;;6212486;23;20032;-83
2022/08/18 12:22:44;;;;;;;208.82;24.45;;;20.90;99.90;;;;;;6213257;23;20340;-82
2022/08/18 12:25:14;;;;;;;193.93;24.40;;;21.20;99.90;;;;;;6211712;23;20004;-80
2022/08/18 12:27:40;;;;;;;214.80;26.25;;;21.50;99.90;;;;;;6211058;23;20313;-81
2022/08/18 12:30:08;;;;;;;183.48;25.83;;;21.70;99.90;;;;;;6213684;23;20039;-81
2022/08/18 12:32:35;;;;;;;170.82;24.17;;;21.70;99.90;;;;;;6210953;23;20051;-79
2022/08/18 12:35:02;;;;;;;131.02;20.38;;;21.50;99.90;;;;;;6209001;23;20323;-79
2022/08/18 12:37:29;;;;;;;100.57;20.40;;;21.30;99.90;;;;;;6207181;23;20333;-82
2022/08/18 12:39:57;;;;;;;58.75;17.73;;;21.10;99.90;;;;;;6207327;23;20012;-85
2022/08/18 12:42:24;;;;;;;49.10;19.80;;;20.90;99.90;;;;;;6208658;23;20079;-77
2022/08/18 12:44:51;;;;;;;52.75;24.30;;;20.90;99.90;;;;;;6208938;23;20056;-76
2022/08/18 12:47:20;;;;;;;59.55;31.38;;;20.90;99.90;;;;;;6208286;23;20087;-78
2022/08/18 12:49:47;;;;;;;56.72;27.05;;;21.00;99.90;;;;;;6208498;23;20038;-78
2022/08/18 12:52:13;;;;;;;56.28;31.65;;;21.00;99.90;;;;;;6208711;23;20516;-79
2022/08/18 12:54:42;;;;;;;65.20;33.50;;;21.20;99.90;;;;;;6208726;23;20047;-89
2022/08/18 12:57:16;;;;;;;65.57;33.42;;;21.50;99.90;;;;;;6208219;23;20013;-80
2022/08/18 12:59:42;;;;;;;57.83;31.25;;;21.70;99.90;;;;;;6206605;23;20392;-76
2022/08/18 13:02:09;;;;;;;46.08;21.23;;;21.90;99.90;;;;;;6208413;23;20554;-78
2022/08/18 13:04:35;;;;;;;48.85;16.95;;;21.40;99.90;;;;;;6208849;23;20000;-82
2022/08/18 13:07:02;;;;;;;43.55;13.98;;;21.10;99.90;;;;;;6208245;23;20007;-79
2022/08/18 13:09:30;;;;;;;37.05;12.50;;;21.00;99.90;;;;;;6208355;23;20482;-78
2022/08/18 13:11:56;;;;;;;39.83;11.73;;;21.20;99.90;;;;;;6207685;23;20008;-77
2022/08/18 13:14:22;;;;;;;35.88;11.30;;;21.50;99.90;;;;;;6206934;23;20001;-80
2022/08/18 13:16:48;;;;;;;28.17;8.43;;;21.70;99.90;;;;;;6206361;23;20021;-78
2022/08/18 13:19:14;;;;;;;34.42;8.25;;;21.60;99.90;;;;;;6208401;23;20011;-79
2022/08/18 13:21:40;;;;;;;27.27;7.72;;;21.80;99.90;;;;;;6208831;23;20412;-78
2022/08/18 13:24:07;;;;;;;25.38;7.45;;;22.40;99.90;;;;;;6208127;23;19993;-80
2022/08/18 13:26:38;;;;;;;23.55;7.00;;;23.00;99.90;;;;;;6208342;23;20463;-79
2022/08/18 13:29:04;;;;;;;26.15;7.13;;;23.30;99.90;;;;;;6208307;23;20100;-79